Hovedside
METAR-TAF:

METAR-TAF

Lufthavner :

Amman, Jordan

breddegrad: 31-59N, lengdegrad: 035-59E, høyde over havet: 767 m

Gjeldene værobservasjon

Denne rapporten ble laget for 49 minutter siden, klokken 21:00 UTC
Vind 7 kt fra Vest
Temperatur 22°C
Luftfuktighet 60%
Trykk 1011 hPa
Sikt: 6000 m

METAR: OJAM 142100Z 27007KT 6000 NSC 22/14 Q1011 NOSIG

Tid: 00:49 (21:49 UTC)

Varsel

Denne rapporten ble laget for 3 timer og 49 minutter siden, klokken 18:00 UTC
Varsel gyldig fra 14. klokken 18 UTC til 15. klokken 24 UTC
Vind 12 kt fra Vest-nordvest
Sikt: 5000 m
Få skyer i en høyde av 3000 ft
dis
Midlertidig
fra 15. klokken 12 UTC til 15. klokken 17 UTC
Vind 18 kt fra Nordvest
Sikt: 4000 m
støvdrev

TAF: OJAM 141800Z 1418/1524 30012KT 5000 HZ FEW030 TEMPO 1512/1517 31018KT 4000 BLDU

Værobservasjoner og værvarsel for over 4000 flyplasser (METAR- og TAF-rapporter).

Tilgjengelige stasjoner er representert av de røde og gule prikkene på kartet.

Hold musepekeren over prikken for å se navnet på stasjonen.

Klikk så for å se værobservasjoner og -varsler.

For å forandre kartet kan du klikke på den grønne knappen med svart kryss for å zoome inn, på den grønne knappen med strek for å zoome ut, eller på de grønne pilene for å se tilstøtende kart.


METAR-TAF: